KTUSKGCN

Guest
Details From KTUS - Tucson Intl
To KGCN - GRAND CANYON NATIONAL PARK
Flight Number -
Tags generated
Created
Modified
Stats Distance 252 nm / 466 km
Max Altitude 18,000 ft / 5,486 m
Waypoints 4
Social Downloads 3
Likes 0
Share VATSIM

Download

Looking for another format? Having issues loading an existing format? Contact us
Advertisement - Login to hide

Notes

Basic altitude profile: - Ascent Rate: 1000ft/min - Ascent Speed: 250kts - Cruise Altitude: 18000ft - Cruise Speed: 250kts - Descent Rate: 1500ft/min - Descent Speed: 250kts

Route

KTUS PXR J11 DRK KGCN

ID Type Via Altitude Latitude Longitude Leg Dist Tot Dist Heading (true) Name
O KTUS APT - 0 ft / 0 m 32.11686˚ -110.94215˚ - 0 nm - Tucson Intl
PXR VOR - 18,000 ft / 5,486 m 33.43303˚ -111.97019˚ 94 nm 94 nm 327° / 326° PHOENIX VORTAC
DRK VOR J11 (AWY-HI) 18,000 ft / 5,486 m 34.70256˚ -112.48036˚ 80 nm 174 nm 342° / 341° DRAKE VORTAC
O KGCN APT - 0 ft / 0 m 35.95237˚ -112.14692˚ 76 nm 251 nm 12° / 12° GRAND CANYON NATIONAL PARK

Altitude Profile

Advertisement - Login to hide

Weather


0- 5 10 15 20 25 30 35+ Temperature / ° C

Clouds and Precipitation
Forecast for 2017-12-11 12:00 UTC. Updated an hour ago

Ground ~20,000 ft ~40,000 ft Winds

KTUS

Details ICAO KTUS (TUS)
Name Tucson Intl
Region United States
Timezone America/Phoenix (UTC-7.0)
Stats Elevation 2,643 ft / 806 m (AMSL)
Location 32.116858° -110.942155°
Runways 3
Magnetic Variation 9.789° E

METAR

KTUS 110753Z 15011KT 10SM CLR 14/M09 A3027 RMK AO2 SLP221 T01391089

Decode

TAF

TAF KTUS 110520Z 1106/1206 12012KT P6SM SCT150 OVC200 FM112000 11005KT P6SM SCT130 BKN200

Decode

Departure Runways

ID Width Length Bearing (true) Bearing (mag) Surface Threshold Offset Overrun Length
03 150 ft / 46 m 7,004 ft / 2,135 m 44.90° 35.11° Asphalt 841 ft / 256 m 0 ft / 0 m
11L 150 ft / 46 m 11,000 ft / 3,353 m 135.16° 125.37° Asphalt 0 ft / 0 m 3,257 ft / 993 m
11R 75 ft / 23 m 8,412 ft / 2,564 m 135.16° 125.37° Asphalt 1,410 ft / 430 m 0 ft / 0 m
21 150 ft / 46 m 7,004 ft / 2,135 m 224.91° 215.12° Asphalt 0 ft / 0 m 0 ft / 0 m
29L 75 ft / 23 m 8,412 ft / 2,564 m 315.17° 305.38° Asphalt 0 ft / 0 m 0 ft / 0 m
29R 150 ft / 46 m 11,000 ft / 3,353 m 315.17° 305.38° Asphalt 0 ft / 0 m 1,000 ft / 305 m

KGCN

Details ICAO KGCN (GCN)
Name GRAND CANYON NATIONAL PARK
Region United States
Timezone America/Phoenix (UTC-7.0)
Stats Elevation 6,609 ft / 2,014 m (AMSL)
Location 35.952369° -112.146919°
Runways 1
Magnetic Variation 10.745° E

METAR

KGCN 110754Z AUTO 07004KT 10SM CLR 03/M25 A3047 RMK AO2 SLP282 T00281250

Decode

TAF

TAF KGCN 110520Z 1106/1206 06011KT P6SM SCT250= TAF KSHR 110520Z 1106/1206 34009KT P6SM BKN150 FM110900 30008KT P6SM SCT150 FM111600 34010KT P6SM FEW150 FM120000 VRB03KT P6SM SKC

Decode

Destination Runways

ID Width Length Bearing (true) Bearing (mag) Surface Threshold Offset Overrun Length
03 151 ft / 46 m 9,008 ft / 2,746 m 40.55° 29.81° Asphalt 0 ft / 0 m 0 ft / 0 m
21 151 ft / 46 m 9,008 ft / 2,746 m 220.57° 209.83° Asphalt 0 ft / 0 m 0 ft / 0 m

Approach Navaids

Runway Type Ident Frequency Range Bearing (true) Bearing (mag) Slope Elevation
03 Localiser IGCN 108.90 MHz 18 nm / 33 km 40.52° 29.77° - 6,609 ft / 2,014 m (AMSL)
03 Glidescope IGCN 108.90 MHz 10 nm / 19 km 40.56° 29.82° 3.00° 6,535 ft / 1,992 m (AMSL)
03 DME IGCN 108.90 MHz 18 nm / 33 km - - - 6,609 ft / 2,014 m (AMSL)

Popular Alternatives